sensor_id;sensor_type;location;lat;lon;timestamp;temperature;humidity
9849;DHT22;4963;51.444;6.528;2023-12-20T00:01:05;8.30;99.90
9849;DHT22;4963;51.444;6.528;2023-12-20T00:03:31;8.20;99.90
9849;DHT22;4963;51.444;6.528;2023-12-20T00:05:58;8.20;99.90
9849;DHT22;4963;51.444;6.528;2023-12-20T00:08:25;8.20;99.90
9849;DHT22;4963;51.444;6.528;2023-12-20T00:10:52;8.20;99.90
9849;DHT22;4963;51.444;6.528;2023-12-20T00:13:19;8.20;99.90
9849;DHT22;4963;51.444;6.528;2023-12-20T00:15:47;8.20;99.90
9849;DHT22;4963;51.444;6.528;2023-12-20T00:18:14;8.10;99.90
9849;DHT22;4963;51.444;6.528;2023-12-20T00:20:41;8.10;99.90
9849;DHT22;4963;51.444;6.528;2023-12-20T00:23:08;8.10;99.90
9849;DHT22;4963;51.444;6.528;2023-12-20T00:25:35;8.10;99.90
9849;DHT22;4963;51.444;6.528;2023-12-20T00:28:02;8.10;99.90
9849;DHT22;4963;51.444;6.528;2023-12-20T00:30:29;8.10;99.90
9849;DHT22;4963;51.444;6.528;2023-12-20T00:32:57;8.00;99.90
9849;DHT22;4963;51.444;6.528;2023-12-20T00:35:24;8.00;99.90
9849;DHT22;4963;51.444;6.528;2023-12-20T00:37:51;8.00;99.90
9849;DHT22;4963;51.444;6.528;2023-12-20T00:40:18;8.00;99.90
9849;DHT22;4963;51.444;6.528;2023-12-20T00:42:46;8.00;99.90
9849;DHT22;4963;51.444;6.528;2023-12-20T00:45:13;8.00;99.90
9849;DHT22;4963;51.444;6.528;2023-12-20T00:47:41;8.10;99.90
9849;DHT22;4963;51.444;6.528;2023-12-20T00:50:09;8.00;99.90
9849;DHT22;4963;51.444;6.528;2023-12-20T00:52:36;8.00;99.90
9849;DHT22;4963;51.444;6.528;2023-12-20T00:55:03;8.10;99.90
9849;DHT22;4963;51.444;6.528;2023-12-20T00:57:33;8.00;99.90
9849;DHT22;4963;51.444;6.528;2023-12-20T01:00:00;8.00;99.90
9849;DHT22;4963;51.444;6.528;2023-12-20T01:02:27;8.00;99.90
9849;DHT22;4963;51.444;6.528;2023-12-20T01:04:54;8.00;99.90
9849;DHT22;4963;51.444;6.528;2023-12-20T01:07:23;8.00;99.90
9849;DHT22;4963;51.444;6.528;2023-12-20T01:09:49;7.90;99.90
9849;DHT22;4963;51.444;6.528;2023-12-20T01:12:16;7.90;99.90
9849;DHT22;4963;51.444;6.528;2023-12-20T01:14:43;7.90;99.90
9849;DHT22;4963;51.444;6.528;2023-12-20T01:17:10;7.90;99.90
9849;DHT22;4963;51.444;6.528;2023-12-20T01:19:37;7.80;99.90
9849;DHT22;4963;51.444;6.528;2023-12-20T01:22:04;7.90;99.90
9849;DHT22;4963;51.444;6.528;2023-12-20T01:24:32;7.90;99.90
9849;DHT22;4963;51.444;6.528;2023-12-20T01:26:59;7.80;99.90
9849;DHT22;4963;51.444;6.528;2023-12-20T01:29:26;7.80;99.90
9849;DHT22;4963;51.444;6.528;2023-12-20T01:31:53;7.70;99.90
9849;DHT22;4963;51.444;6.528;2023-12-20T01:34:19;7.70;99.90
9849;DHT22;4963;51.444;6.528;2023-12-20T01:36:51;7.70;99.90
9849;DHT22;4963;51.444;6.528;2023-12-20T01:39:18;7.70;99.90
9849;DHT22;4963;51.444;6.528;2023-12-20T01:41:46;7.70;99.90
9849;DHT22;4963;51.444;6.528;2023-12-20T01:44:13;7.60;99.90
9849;DHT22;4963;51.444;6.528;2023-12-20T01:46:40;7.60;99.90
9849;DHT22;4963;51.444;6.528;2023-12-20T01:49:08;7.60;99.90
9849;DHT22;4963;51.444;6.528;2023-12-20T01:51:36;7.60;99.90
9849;DHT22;4963;51.444;6.528;2023-12-20T01:54:06;7.60;99.90
9849;DHT22;4963;51.444;6.528;2023-12-20T01:56:33;7.60;99.90
9849;DHT22;4963;51.444;6.528;2023-12-20T01:59:02;7.60;99.90
9849;DHT22;4963;51.444;6.528;2023-12-20T02:01:30;7.60;99.90
9849;DHT22;4963;51.444;6.528;2023-12-20T02:03:57;7.60;99.90
9849;DHT22;4963;51.444;6.528;2023-12-20T02:06:28;7.50;99.90
9849;DHT22;4963;51.444;6.528;2023-12-20T02:08:56;7.50;99.90
9849;DHT22;4963;51.444;6.528;2023-12-20T02:11:26;7.50;99.90
9849;DHT22;4963;51.444;6.528;2023-12-20T02:13:57;7.50;99.90
9849;DHT22;4963;51.444;6.528;2023-12-20T02:16:25;7.50;99.90
9849;DHT22;4963;51.444;6.528;2023-12-20T02:18:52;7.50;99.90
9849;DHT22;4963;51.444;6.528;2023-12-20T02:21:32;7.40;99.90
9849;DHT22;4963;51.444;6.528;2023-12-20T02:23:59;7.40;99.90
9849;DHT22;4963;51.444;6.528;2023-12-20T02:26:26;7.30;99.90
9849;DHT22;4963;51.444;6.528;2023-12-20T02:28:55;7.30;99.90
9849;DHT22;4963;51.444;6.528;2023-12-20T02:31:23;7.30;99.90
9849;DHT22;4963;51.444;6.528;2023-12-20T02:33:50;7.20;99.90
9849;DHT22;4963;51.444;6.528;2023-12-20T02:36:17;7.30;99.90
9849;DHT22;4963;51.444;6.528;2023-12-20T02:38:45;7.20;99.90
9849;DHT22;4963;51.444;6.528;2023-12-20T02:41:12;7.20;99.90
9849;DHT22;4963;51.444;6.528;2023-12-20T02:43:41;7.20;99.90
9849;DHT22;4963;51.444;6.528;2023-12-20T02:46:08;7.20;99.90
9849;DHT22;4963;51.444;6.528;2023-12-20T02:48:35;7.10;99.90
9849;DHT22;4963;51.444;6.528;2023-12-20T02:51:04;7.10;99.90
9849;DHT22;4963;51.444;6.528;2023-12-20T02:53:32;7.10;99.90
9849;DHT22;4963;51.444;6.528;2023-12-20T02:56:02;7.10;99.90
9849;DHT22;4963;51.444;6.528;2023-12-20T02:58:29;7.00;99.90
9849;DHT22;4963;51.444;6.528;2023-12-20T03:00:55;7.00;99.90
9849;DHT22;4963;51.444;6.528;2023-12-20T03:03:22;7.00;99.90
9849;DHT22;4963;51.444;6.528;2023-12-20T03:05:49;7.10;99.90
9849;DHT22;4963;51.444;6.528;2023-12-20T03:08:16;7.10;99.90
9849;DHT22;4963;51.444;6.528;2023-12-20T03:10:43;7.10;99.90
9849;DHT22;4963;51.444;6.528;2023-12-20T03:13:11;7.10;99.90
9849;DHT22;4963;51.444;6.528;2023-12-20T03:15:39;7.10;99.90
9849;DHT22;4963;51.444;6.528;2023-12-20T03:18:06;7.10;99.90
9849;DHT22;4963;51.444;6.528;2023-12-20T03:20:33;7.10;99.90
9849;DHT22;4963;51.444;6.528;2023-12-20T03:23:00;7.10;99.90
9849;DHT22;4963;51.444;6.528;2023-12-20T03:25:27;7.10;99.90
9849;DHT22;4963;51.444;6.528;2023-12-20T03:27:54;7.10;99.90
9849;DHT22;4963;51.444;6.528;2023-12-20T03:30:22;7.10;99.90
9849;DHT22;4963;51.444;6.528;2023-12-20T03:32:49;7.00;99.90
9849;DHT22;4963;51.444;6.528;2023-12-20T03:35:16;6.90;99.90
9849;DHT22;4963;51.444;6.528;2023-12-20T03:37:42;6.90;99.90
9849;DHT22;4963;51.444;6.528;2023-12-20T03:40:10;6.90;99.90
9849;DHT22;4963;51.444;6.528;2023-12-20T03:42:37;6.90;99.90
9849;DHT22;4963;51.444;6.528;2023-12-20T03:45:04;6.90;99.90
9849;DHT22;4963;51.444;6.528;2023-12-20T03:47:33;6.90;99.90
9849;DHT22;4963;51.444;6.528;2023-12-20T03:50:00;6.80;99.90
9849;DHT22;4963;51.444;6.528;2023-12-20T03:52:27;6.80;99.90
9849;DHT22;4963;51.444;6.528;2023-12-20T03:54:54;6.80;99.90
9849;DHT22;4963;51.444;6.528;2023-12-20T03:57:21;6.80;99.90
9849;DHT22;4963;51.444;6.528;2023-12-20T03:59:48;6.70;99.90
9849;DHT22;4963;51.444;6.528;2023-12-20T04:02:15;6.80;99.90
9849;DHT22;4963;51.444;6.528;2023-12-20T04:04:45;6.80;99.90
9849;DHT22;4963;51.444;6.528;2023-12-20T04:07:11;6.80;99.90
9849;DHT22;4963;51.444;6.528;2023-12-20T04:09:38;6.80;99.90
9849;DHT22;4963;51.444;6.528;2023-12-20T04:12:07;6.70;99.90
9849;DHT22;4963;51.444;6.528;2023-12-20T04:14:34;6.70;99.90
9849;DHT22;4963;51.444;6.528;2023-12-20T04:17:01;6.60;99.90
9849;DHT22;4963;51.444;6.528;2023-12-20T04:19:32;6.60;99.90
9849;DHT22;4963;51.444;6.528;2023-12-20T04:22:01;6.60;99.90
9849;DHT22;4963;51.444;6.528;2023-12-20T04:24:27;6.60;99.90
9849;DHT22;4963;51.444;6.528;2023-12-20T04:26:54;6.60;99.90
9849;DHT22;4963;51.444;6.528;2023-12-20T04:29:21;6.60;99.90
9849;DHT22;4963;51.444;6.528;2023-12-20T04:31:49;6.70;99.90
9849;DHT22;4963;51.444;6.528;2023-12-20T04:34:16;6.70;99.90
9849;DHT22;4963;51.444;6.528;2023-12-20T04:36:43;6.70;99.90
9849;DHT22;4963;51.444;6.528;2023-12-20T04:39:12;6.60;99.90
9849;DHT22;4963;51.444;6.528;2023-12-20T04:41:39;6.70;99.90
9849;DHT22;4963;51.444;6.528;2023-12-20T04:44:06;6.70;99.90
9849;DHT22;4963;51.444;6.528;2023-12-20T04:46:33;6.60;99.90
9849;DHT22;4963;51.444;6.528;2023-12-20T04:49:02;6.60;99.90
9849;DHT22;4963;51.444;6.528;2023-12-20T04:51:29;6.60;99.90
9849;DHT22;4963;51.444;6.528;2023-12-20T04:54:01;6.60;99.90
9849;DHT22;4963;51.444;6.528;2023-12-20T04:56:29;6.60;99.90
9849;DHT22;4963;51.444;6.528;2023-12-20T04:58:56;6.60;99.90
9849;DHT22;4963;51.444;6.528;2023-12-20T05:01:23;6.50;99.90
9849;DHT22;4963;51.444;6.528;2023-12-20T05:03:49;6.50;99.90
9849;DHT22;4963;51.444;6.528;2023-12-20T05:06:16;6.50;99.90
9849;DHT22;4963;51.444;6.528;2023-12-20T05:08:43;6.50;99.90
9849;DHT22;4963;51.444;6.528;2023-12-20T05:11:12;6.40;99.90
9849;DHT22;4963;51.444;6.528;2023-12-20T05:13:42;6.40;99.90
9849;DHT22;4963;51.444;6.528;2023-12-20T05:16:08;6.50;99.90
9849;DHT22;4963;51.444;6.528;2023-12-20T05:18:36;6.50;99.90
9849;DHT22;4963;51.444;6.528;2023-12-20T05:21:03;6.50;99.90
9849;DHT22;4963;51.444;6.528;2023-12-20T05:23:30;6.50;99.90
9849;DHT22;4963;51.444;6.528;2023-12-20T05:25:57;6.40;99.90
9849;DHT22;4963;51.444;6.528;2023-12-20T05:28:24;6.40;99.90
9849;DHT22;4963;51.444;6.528;2023-12-20T05:30:52;6.50;99.90
9849;DHT22;4963;51.444;6.528;2023-12-20T05:33:20;6.50;99.90
9849;DHT22;4963;51.444;6.528;2023-12-20T05:35:46;6.50;99.90
9849;DHT22;4963;51.444;6.528;2023-12-20T05:38:13;6.50;99.90
9849;DHT22;4963;51.444;6.528;2023-12-20T05:40:40;6.50;99.90
9849;DHT22;4963;51.444;6.528;2023-12-20T05:43:07;6.40;99.90
9849;DHT22;4963;51.444;6.528;2023-12-20T05:45:34;6.40;99.90
9849;DHT22;4963;51.444;6.528;2023-12-20T05:48:05;6.40;99.90
9849;DHT22;4963;51.444;6.528;2023-12-20T05:50:32;6.40;99.90
9849;DHT22;4963;51.444;6.528;2023-12-20T05:53:00;6.40;99.90
9849;DHT22;4963;51.444;6.528;2023-12-20T05:55:27;6.50;99.90
9849;DHT22;4963;51.444;6.528;2023-12-20T05:57:54;6.50;99.90
9849;DHT22;4963;51.444;6.528;2023-12-20T06:00:20;6.40;99.90
9849;DHT22;4963;51.444;6.528;2023-12-20T06:02:47;6.50;99.90
9849;DHT22;4963;51.444;6.528;2023-12-20T06:05:16;6.40;99.90
9849;DHT22;4963;51.444;6.528;2023-12-20T06:07:42;6.50;99.90
9849;DHT22;4963;51.444;6.528;2023-12-20T06:10:10;6.40;99.90
9849;DHT22;4963;51.444;6.528;2023-12-20T06:12:37;6.40;99.90
9849;DHT22;4963;51.444;6.528;2023-12-20T06:15:04;6.50;99.90
9849;DHT22;4963;51.444;6.528;2023-12-20T06:17:34;6.60;99.90
9849;DHT22;4963;51.444;6.528;2023-12-20T06:20:04;6.60;99.90
9849;DHT22;4963;51.444;6.528;2023-12-20T06:22:37;6.70;99.90
9849;DHT22;4963;51.444;6.528;2023-12-20T06:25:04;6.70;99.90
9849;DHT22;4963;51.444;6.528;2023-12-20T06:27:34;6.70;99.90
9849;DHT22;4963;51.444;6.528;2023-12-20T06:30:01;6.60;99.90
9849;DHT22;4963;51.444;6.528;2023-12-20T06:32:28;6.60;99.90
9849;DHT22;4963;51.444;6.528;2023-12-20T06:34:55;6.70;99.90
9849;DHT22;4963;51.444;6.528;2023-12-20T06:37:22;6.70;99.90
9849;DHT22;4963;51.444;6.528;2023-12-20T06:39:53;6.80;99.90
9849;DHT22;4963;51.444;6.528;2023-12-20T06:42:23;6.80;99.90
9849;DHT22;4963;51.444;6.528;2023-12-20T06:44:50;6.80;99.90
9849;DHT22;4963;51.444;6.528;2023-12-20T06:47:16;6.80;99.90
9849;DHT22;4963;51.444;6.528;2023-12-20T06:49:46;6.80;99.90
9849;DHT22;4963;51.444;6.528;2023-12-20T06:52:13;6.80;99.90
9849;DHT22;4963;51.444;6.528;2023-12-20T06:54:40;6.70;99.90
9849;DHT22;4963;51.444;6.528;2023-12-20T06:57:08;6.70;99.90
9849;DHT22;4963;51.444;6.528;2023-12-20T06:59:38;6.80;99.90
9849;DHT22;4963;51.444;6.528;2023-12-20T07:02:05;6.70;99.90
9849;DHT22;4963;51.444;6.528;2023-12-20T07:04:33;6.80;99.90
9849;DHT22;4963;51.444;6.528;2023-12-20T07:06:59;6.80;99.90
9849;DHT22;4963;51.444;6.528;2023-12-20T07:09:30;6.80;99.90
9849;DHT22;4963;51.444;6.528;2023-12-20T07:11:57;6.80;99.90
9849;DHT22;4963;51.444;6.528;2023-12-20T07:14:25;6.80;99.90
9849;DHT22;4963;51.444;6.528;2023-12-20T07:16:52;6.80;99.90
9849;DHT22;4963;51.444;6.528;2023-12-20T07:19:19;6.70;99.90
9849;DHT22;4963;51.444;6.528;2023-12-20T07:21:45;6.70;99.90
9849;DHT22;4963;51.444;6.528;2023-12-20T07:24:12;6.80;99.90
9849;DHT22;4963;51.444;6.528;2023-12-20T07:26:39;6.80;99.90
9849;DHT22;4963;51.444;6.528;2023-12-20T07:29:06;6.80;99.90
9849;DHT22;4963;51.444;6.528;2023-12-20T07:31:35;6.80;99.90
9849;DHT22;4963;51.444;6.528;2023-12-20T07:34:04;6.80;99.90
9849;DHT22;4963;51.444;6.528;2023-12-20T07:36:33;6.80;99.90
9849;DHT22;4963;51.444;6.528;2023-12-20T07:39:00;6.80;99.90
9849;DHT22;4963;51.444;6.528;2023-12-20T07:41:29;6.80;99.90
9849;DHT22;4963;51.444;6.528;2023-12-20T07:43:56;6.90;99.90
9849;DHT22;4963;51.444;6.528;2023-12-20T07:46:24;6.80;99.90
9849;DHT22;4963;51.444;6.528;2023-12-20T07:48:54;6.80;99.90
9849;DHT22;4963;51.444;6.528;2023-12-20T07:51:20;6.90;99.90
9849;DHT22;4963;51.444;6.528;2023-12-20T07:53:47;6.90;99.90
9849;DHT22;4963;51.444;6.528;2023-12-20T07:56:15;6.80;99.90
9849;DHT22;4963;51.444;6.528;2023-12-20T07:58:42;6.80;99.90
9849;DHT22;4963;51.444;6.528;2023-12-20T08:01:10;6.90;99.90
9849;DHT22;4963;51.444;6.528;2023-12-20T08:03:37;6.90;99.90
9849;DHT22;4963;51.444;6.528;2023-12-20T08:06:06;6.90;99.90
9849;DHT22;4963;51.444;6.528;2023-12-20T08:08:33;6.90;99.90
9849;DHT22;4963;51.444;6.528;2023-12-20T08:11:00;6.90;99.90
9849;DHT22;4963;51.444;6.528;2023-12-20T08:13:28;6.90;99.90
9849;DHT22;4963;51.444;6.528;2023-12-20T08:15:56;6.90;99.90
9849;DHT22;4963;51.444;6.528;2023-12-20T08:18:30;6.90;99.90
9849;DHT22;4963;51.444;6.528;2023-12-20T08:21:00;6.90;99.90
9849;DHT22;4963;51.444;6.528;2023-12-20T08:23:29;6.90;99.90
9849;DHT22;4963;51.444;6.528;2023-12-20T08:25:56;6.90;99.90
9849;DHT22;4963;51.444;6.528;2023-12-20T08:28:22;6.80;99.90
9849;DHT22;4963;51.444;6.528;2023-12-20T08:30:49;6.80;99.90
9849;DHT22;4963;51.444;6.528;2023-12-20T08:33:19;6.80;99.90
9849;DHT22;4963;51.444;6.528;2023-12-20T08:35:46;6.80;99.90
9849;DHT22;4963;51.444;6.528;2023-12-20T08:38:13;6.80;99.90
9849;DHT22;4963;51.444;6.528;2023-12-20T08:40:41;6.80;99.90
9849;DHT22;4963;51.444;6.528;2023-12-20T08:43:08;6.80;99.90
9849;DHT22;4963;51.444;6.528;2023-12-20T08:45:35;6.80;99.90
9849;DHT22;4963;51.444;6.528;2023-12-20T08:48:02;6.80;99.90
9849;DHT22;4963;51.444;6.528;2023-12-20T08:50:30;6.80;99.90
9849;DHT22;4963;51.444;6.528;2023-12-20T08:52:57;6.90;99.90
9849;DHT22;4963;51.444;6.528;2023-12-20T08:55:24;6.90;99.90
9849;DHT22;4963;51.444;6.528;2023-12-20T08:57:53;6.90;99.90
9849;DHT22;4963;51.444;6.528;2023-12-20T09:00:20;6.90;99.90
9849;DHT22;4963;51.444;6.528;2023-12-20T09:02:49;6.90;99.90
9849;DHT22;4963;51.444;6.528;2023-12-20T09:05:16;6.80;99.90
9849;DHT22;4963;51.444;6.528;2023-12-20T09:07:45;6.90;99.90
9849;DHT22;4963;51.444;6.528;2023-12-20T09:10:14;6.80;99.90
9849;DHT22;4963;51.444;6.528;2023-12-20T09:12:41;6.80;99.90
9849;DHT22;4963;51.444;6.528;2023-12-20T09:15:09;6.80;99.90
9849;DHT22;4963;51.444;6.528;2023-12-20T09:17:39;6.90;99.90
9849;DHT22;4963;51.444;6.528;2023-12-20T09:20:07;6.90;99.90
9849;DHT22;4963;51.444;6.528;2023-12-20T09:22:36;6.90;99.90
9849;DHT22;4963;51.444;6.528;2023-12-20T09:25:05;6.90;99.90
9849;DHT22;4963;51.444;6.528;2023-12-20T09:27:32;6.90;99.90
9849;DHT22;4963;51.444;6.528;2023-12-20T09:29:59;6.90;99.90
9849;DHT22;4963;51.444;6.528;2023-12-20T09:32:27;6.90;99.90
9849;DHT22;4963;51.444;6.528;2023-12-20T09:34:55;6.90;99.90
9849;DHT22;4963;51.444;6.528;2023-12-20T09:37:22;6.90;99.90
9849;DHT22;4963;51.444;6.528;2023-12-20T09:39:49;7.00;99.90
9849;DHT22;4963;51.444;6.528;2023-12-20T09:42:25;7.00;99.90
9849;DHT22;4963;51.444;6.528;2023-12-20T09:45:01;7.00;99.90
9849;DHT22;4963;51.444;6.528;2023-12-20T09:47:30;7.00;99.90
9849;DHT22;4963;51.444;6.528;2023-12-20T09:49:57;6.90;99.90
9849;DHT22;4963;51.444;6.528;2023-12-20T09:52:24;7.00;99.90
9849;DHT22;4963;51.444;6.528;2023-12-20T09:54:52;6.90;99.90
9849;DHT22;4963;51.444;6.528;2023-12-20T09:57:20;7.00;99.90
9849;DHT22;4963;51.444;6.528;2023-12-20T09:59:47;7.00;99.90
9849;DHT22;4963;51.444;6.528;2023-12-20T10:02:14;7.00;99.90
9849;DHT22;4963;51.444;6.528;2023-12-20T10:04:47;7.00;99.90
9849;DHT22;4963;51.444;6.528;2023-12-20T10:07:14;7.00;99.90
9849;DHT22;4963;51.444;6.528;2023-12-20T10:09:42;7.10;99.90
9849;DHT22;4963;51.444;6.528;2023-12-20T10:12:09;7.10;99.90
9849;DHT22;4963;51.444;6.528;2023-12-20T10:14:36;7.10;99.90
9849;DHT22;4963;51.444;6.528;2023-12-20T10:17:05;7.10;99.90
9849;DHT22;4963;51.444;6.528;2023-12-20T10:19:33;7.20;99.90
9849;DHT22;4963;51.444;6.528;2023-12-20T10:22:04;7.20;99.90
9849;DHT22;4963;51.444;6.528;2023-12-20T10:24:32;7.20;99.90
9849;DHT22;4963;51.444;6.528;2023-12-20T10:27:04;7.30;99.90
9849;DHT22;4963;51.444;6.528;2023-12-20T10:29:36;7.30;99.90
9849;DHT22;4963;51.444;6.528;2023-12-20T10:32:23;7.30;99.90
9849;DHT22;4963;51.444;6.528;2023-12-20T10:34:51;7.40;99.90
9849;DHT22;4963;51.444;6.528;2023-12-20T10:37:19;7.30;99.90
9849;DHT22;4963;51.444;6.528;2023-12-20T10:39:49;7.40;99.90
9849;DHT22;4963;51.444;6.528;2023-12-20T10:42:22;7.40;99.90
9849;DHT22;4963;51.444;6.528;2023-12-20T10:44:49;7.40;99.90
9849;DHT22;4963;51.444;6.528;2023-12-20T10:47:17;7.40;99.90
9849;DHT22;4963;51.444;6.528;2023-12-20T10:49:45;7.40;99.90
9849;DHT22;4963;51.444;6.528;2023-12-20T10:52:14;7.40;99.90
9849;DHT22;4963;51.444;6.528;2023-12-20T10:54:44;7.40;99.90
9849;DHT22;4963;51.444;6.528;2023-12-20T10:57:19;7.40;99.90
9849;DHT22;4963;51.444;6.528;2023-12-20T10:59:48;7.40;99.90
9849;DHT22;4963;51.444;6.528;2023-12-20T11:02:16;7.40;99.90
9849;DHT22;4963;51.444;6.528;2023-12-20T11:04:47;7.40;99.90
9849;DHT22;4963;51.444;6.528;2023-12-20T11:07:21;7.40;99.90
9849;DHT22;4963;51.444;6.528;2023-12-20T11:09:57;7.40;99.90
9849;DHT22;4963;51.444;6.528;2023-12-20T11:12:35;7.40;99.90
9849;DHT22;4963;51.444;6.528;2023-12-20T11:15:04;7.40;99.90
9849;DHT22;4963;51.444;6.528;2023-12-20T11:17:32;7.50;99.90
9849;DHT22;4963;51.444;6.528;2023-12-20T11:20:07;7.50;99.90
9849;DHT22;4963;51.444;6.528;2023-12-20T11:22:36;7.60;99.90
9849;DHT22;4963;51.444;6.528;2023-12-20T11:25:07;7.60;99.90
9849;DHT22;4963;51.444;6.528;2023-12-20T11:27:40;7.60;99.90
9849;DHT22;4963;51.444;6.528;2023-12-20T11:30:13;7.60;99.90
9849;DHT22;4963;51.444;6.528;2023-12-20T11:32:40;7.60;99.90
9849;DHT22;4963;51.444;6.528;2023-12-20T11:35:19;7.70;99.90
9849;DHT22;4963;51.444;6.528;2023-12-20T11:37:46;7.70;99.90
9849;DHT22;4963;51.444;6.528;2023-12-20T11:40:16;7.70;99.90
9849;DHT22;4963;51.444;6.528;2023-12-20T11:42:45;7.70;99.90
9849;DHT22;4963;51.444;6.528;2023-12-20T11:45:14;7.70;99.90
9849;DHT22;4963;51.444;6.528;2023-12-20T11:47:44;7.60;99.90
9849;DHT22;4963;51.444;6.528;2023-12-20T11:50:12;7.60;99.90
9849;DHT22;4963;51.444;6.528;2023-12-20T11:52:39;7.60;99.90
9849;DHT22;4963;51.444;6.528;2023-12-20T11:55:06;7.60;99.90
9849;DHT22;4963;51.444;6.528;2023-12-20T11:57:39;7.60;99.90
9849;DHT22;4963;51.444;6.528;2023-12-20T12:00:10;7.60;99.90
9849;DHT22;4963;51.444;6.528;2023-12-20T12:02:37;7.60;99.90
9849;DHT22;4963;51.444;6.528;2023-12-20T12:05:05;7.60;99.90
9849;DHT22;4963;51.444;6.528;2023-12-20T12:07:33;7.60;99.90
9849;DHT22;4963;51.444;6.528;2023-12-20T12:10:00;7.60;99.90
9849;DHT22;4963;51.444;6.528;2023-12-20T12:12:27;7.60;99.90
9849;DHT22;4963;51.444;6.528;2023-12-20T12:14:57;7.70;99.90
9849;DHT22;4963;51.444;6.528;2023-12-20T12:17:24;7.70;99.90
9849;DHT22;4963;51.444;6.528;2023-12-20T12:19:51;7.70;99.90
9849;DHT22;4963;51.444;6.528;2023-12-20T12:22:28;7.60;99.90
9849;DHT22;4963;51.444;6.528;2023-12-20T12:24:59;7.60;99.90
9849;DHT22;4963;51.444;6.528;2023-12-20T12:27:29;7.70;99.90
9849;DHT22;4963;51.444;6.528;2023-12-20T12:30:03;7.70;99.90
9849;DHT22;4963;51.444;6.528;2023-12-20T12:32:32;7.70;99.90
9849;DHT22;4963;51.444;6.528;2023-12-20T12:34:59;7.70;99.90
9849;DHT22;4963;51.444;6.528;2023-12-20T12:37:26;7.70;99.90
9849;DHT22;4963;51.444;6.528;2023-12-20T12:39:53;7.70;99.90
9849;DHT22;4963;51.444;6.528;2023-12-20T12:42:21;7.70;99.90
9849;DHT22;4963;51.444;6.528;2023-12-20T12:44:51;7.70;99.90
9849;DHT22;4963;51.444;6.528;2023-12-20T12:47:19;7.70;99.90
9849;DHT22;4963;51.444;6.528;2023-12-20T12:49:46;7.70;99.90
9849;DHT22;4963;51.444;6.528;2023-12-20T12:52:13;7.70;99.90
9849;DHT22;4963;51.444;6.528;2023-12-20T12:54:40;7.60;99.90
9849;DHT22;4963;51.444;6.528;2023-12-20T12:57:08;7.60;99.90
9849;DHT22;4963;51.444;6.528;2023-12-20T12:59:35;7.70;99.90
9849;DHT22;4963;51.444;6.528;2023-12-20T13:02:01;7.60;99.90
9849;DHT22;4963;51.444;6.528;2023-12-20T13:04:32;7.60;99.90
9849;DHT22;4963;51.444;6.528;2023-12-20T13:06:59;7.60;99.90
9849;DHT22;4963;51.444;6.528;2023-12-20T13:09:26;7.60;99.90
9849;DHT22;4963;51.444;6.528;2023-12-20T13:11:53;7.60;99.90
9849;DHT22;4963;51.444;6.528;2023-12-20T13:14:20;7.60;99.90
9849;DHT22;4963;51.444;6.528;2023-12-20T13:16:47;7.60;99.90
9849;DHT22;4963;51.444;6.528;2023-12-20T13:19:14;7.60;99.90
9849;DHT22;4963;51.444;6.528;2023-12-20T13:21:42;7.50;99.90
9849;DHT22;4963;51.444;6.528;2023-12-20T13:24:09;7.50;99.90
9849;DHT22;4963;51.444;6.528;2023-12-20T13:26:36;7.50;99.90
9849;DHT22;4963;51.444;6.528;2023-12-20T13:29:04;7.50;99.90
9849;DHT22;4963;51.444;6.528;2023-12-20T13:31:30;7.50;99.90
9849;DHT22;4963;51.444;6.528;2023-12-20T13:33:57;7.50;99.90
9849;DHT22;4963;51.444;6.528;2023-12-20T13:36:24;7.50;99.90
9849;DHT22;4963;51.444;6.528;2023-12-20T13:38:53;7.50;99.90
9849;DHT22;4963;51.444;6.528;2023-12-20T13:41:20;7.40;99.90
9849;DHT22;4963;51.444;6.528;2023-12-20T13:43:46;7.50;99.90
9849;DHT22;4963;51.444;6.528;2023-12-20T13:46:16;7.50;99.90
9849;DHT22;4963;51.444;6.528;2023-12-20T13:48:43;7.50;99.90
9849;DHT22;4963;51.444;6.528;2023-12-20T13:51:13;7.50;99.90
9849;DHT22;4963;51.444;6.528;2023-12-20T13:53:40;7.40;99.90
9849;DHT22;4963;51.444;6.528;2023-12-20T13:56:09;7.50;99.90
9849;DHT22;4963;51.444;6.528;2023-12-20T13:58:36;7.50;99.90
9849;DHT22;4963;51.444;6.528;2023-12-20T14:01:03;7.50;99.90
9849;DHT22;4963;51.444;6.528;2023-12-20T14:03:29;7.50;99.90
9849;DHT22;4963;51.444;6.528;2023-12-20T14:05:57;7.50;99.90
9849;DHT22;4963;51.444;6.528;2023-12-20T14:08:24;7.50;99.90
9849;DHT22;4963;51.444;6.528;2023-12-20T14:10:52;7.50;99.90
9849;DHT22;4963;51.444;6.528;2023-12-20T14:13:20;7.50;99.90
9849;DHT22;4963;51.444;6.528;2023-12-20T14:15:47;7.50;99.90
9849;DHT22;4963;51.444;6.528;2023-12-20T14:18:17;7.50;99.90
9849;DHT22;4963;51.444;6.528;2023-12-20T14:20:44;7.50;99.90
9849;DHT22;4963;51.444;6.528;2023-12-20T14:23:12;7.50;99.90
9849;DHT22;4963;51.444;6.528;2023-12-20T14:25:41;7.50;99.90
9849;DHT22;4963;51.444;6.528;2023-12-20T14:28:08;7.50;99.90
9849;DHT22;4963;51.444;6.528;2023-12-20T14:30:39;7.50;99.90
9849;DHT22;4963;51.444;6.528;2023-12-20T14:33:07;7.60;99.90
9849;DHT22;4963;51.444;6.528;2023-12-20T14:35:33;7.50;99.90
9849;DHT22;4963;51.444;6.528;2023-12-20T14:38:01;7.50;99.90
9849;DHT22;4963;51.444;6.528;2023-12-20T14:40:28;7.50;99.90
9849;DHT22;4963;51.444;6.528;2023-12-20T14:42:54;7.50;99.90
9849;DHT22;4963;51.444;6.528;2023-12-20T14:45:22;7.60;99.90
9849;DHT22;4963;51.444;6.528;2023-12-20T14:48:01;7.60;99.90
9849;DHT22;4963;51.444;6.528;2023-12-20T14:50:28;7.60;99.90
9849;DHT22;4963;51.444;6.528;2023-12-20T14:52:55;7.60;99.90
9849;DHT22;4963;51.444;6.528;2023-12-20T14:55:22;7.60;99.90
9849;DHT22;4963;51.444;6.528;2023-12-20T14:57:49;7.60;99.90
9849;DHT22;4963;51.444;6.528;2023-12-20T15:00:16;7.60;99.90
9849;DHT22;4963;51.444;6.528;2023-12-20T15:02:45;7.60;99.90
9849;DHT22;4963;51.444;6.528;2023-12-20T15:05:13;7.60;99.90
9849;DHT22;4963;51.444;6.528;2023-12-20T15:07:44;7.60;99.90
9849;DHT22;4963;51.444;6.528;2023-12-20T15:10:12;7.60;99.90
9849;DHT22;4963;51.444;6.528;2023-12-20T15:12:42;7.60;99.90
9849;DHT22;4963;51.444;6.528;2023-12-20T15:15:10;7.60;99.90
9849;DHT22;4963;51.444;6.528;2023-12-20T15:17:37;7.60;99.90
9849;DHT22;4963;51.444;6.528;2023-12-20T15:20:07;7.60;99.90
9849;DHT22;4963;51.444;6.528;2023-12-20T15:22:38;7.60;99.90
9849;DHT22;4963;51.444;6.528;2023-12-20T15:25:07;7.60;99.90
9849;DHT22;4963;51.444;6.528;2023-12-20T15:27:36;7.60;99.90
9849;DHT22;4963;51.444;6.528;2023-12-20T15:30:04;7.60;99.90
9849;DHT22;4963;51.444;6.528;2023-12-20T15:32:35;7.60;99.90
9849;DHT22;4963;51.444;6.528;2023-12-20T15:35:03;7.60;99.90
9849;DHT22;4963;51.444;6.528;2023-12-20T15:37:29;7.60;99.90
9849;DHT22;4963;51.444;6.528;2023-12-20T15:39:57;7.60;99.90
9849;DHT22;4963;51.444;6.528;2023-12-20T15:42:24;7.60;99.90
9849;DHT22;4963;51.444;6.528;2023-12-20T15:44:51;7.60;99.90
9849;DHT22;4963;51.444;6.528;2023-12-20T15:47:18;7.60;99.90
9849;DHT22;4963;51.444;6.528;2023-12-20T15:49:45;7.60;99.90
9849;DHT22;4963;51.444;6.528;2023-12-20T15:52:14;7.60;99.90
9849;DHT22;4963;51.444;6.528;2023-12-20T15:54:41;7.60;99.90
9849;DHT22;4963;51.444;6.528;2023-12-20T15:57:09;7.70;99.90
9849;DHT22;4963;51.444;6.528;2023-12-20T15:59:36;7.60;99.90
9849;DHT22;4963;51.444;6.528;2023-12-20T16:02:03;7.60;99.90
9849;DHT22;4963;51.444;6.528;2023-12-20T16:04:30;7.60;99.90
9849;DHT22;4963;51.444;6.528;2023-12-20T16:06:57;7.60;99.90
9849;DHT22;4963;51.444;6.528;2023-12-20T16:09:24;7.60;99.90
9849;DHT22;4963;51.444;6.528;2023-12-20T16:11:51;7.60;99.90
9849;DHT22;4963;51.444;6.528;2023-12-20T16:14:19;7.60;99.90
9849;DHT22;4963;51.444;6.528;2023-12-20T16:16:46;7.60;99.90
9849;DHT22;4963;51.444;6.528;2023-12-20T16:19:13;7.60;99.90
9849;DHT22;4963;51.444;6.528;2023-12-20T16:21:40;7.60;99.90